EWG16U EDDL-LOWS
Flight info
| Callsign | EWG16U |
|---|---|
| Flight time | 1h 0m |
| Altitude | 23000 |
| Route | KUMIK5Z KUMIK L603 TESGA Z719 OSBIT L984 SULUS Z650 TIPAM T703 ARBAX/N0382F220 T108 OSTES/N0376F210 T700 BADIT BADIT2R |
| Aircraft | A319/M-SDE3FGHIRWY/LB1 |
Departure
| Time | 2026-05-05 06:28 |
|---|---|
| Airport | Düsseldorf Airport (EDDL) |
Arrival
| Time | 2026-05-05 07:28 |
|---|---|
| Airport | Salzburg Airport (LOWS) |
| Time | Latitude | Longitude | Altitude | Speed | Heading |
|---|---|---|---|---|---|
| 2026-05-05 06:03 | 51.28490 | 6.77055 | 129 ft | 0 kts | 323° |
| 2026-05-05 06:08 | 51.28490 | 6.77056 | 129 ft | 0 kts | 323° |
| 2026-05-05 06:20 | 51.28472 | 6.77077 | 123 ft | 4 kts | 323° |
| 2026-05-05 06:20 | 51.28451 | 6.77103 | 124 ft | 4 kts | 305° |
| 2026-05-05 06:20 | 51.28444 | 6.77133 | 123 ft | 4 kts | 256° |
| 2026-05-05 06:21 | 51.28448 | 6.77150 | 125 ft | 3 kts | 241° |
| 2026-05-05 06:21 | 51.28450 | 6.77155 | 125 ft | 0 kts | 241° |
| 2026-05-05 06:23 | 51.28444 | 6.77138 | 123 ft | 0 kts | 241° |
| 2026-05-05 06:24 | 51.28440 | 6.77127 | 129 ft | 3 kts | 240° |
| 2026-05-05 06:24 | 51.28417 | 6.77084 | 127 ft | 8 kts | 229° |
| 2026-05-05 06:24 | 51.28376 | 6.77002 | 129 ft | 11 kts | 233° |
| 2026-05-05 06:24 | 51.28355 | 6.76887 | 128 ft | 12 kts | 302° |
| 2026-05-05 06:25 | 51.28433 | 6.76793 | 123 ft | 16 kts | 324° |
| 2026-05-05 06:25 | 51.28432 | 6.76652 | 126 ft | 17 kts | 225° |
| 2026-05-05 06:25 | 51.28354 | 6.76498 | 126 ft | 19 kts | 231° |
| 2026-05-05 06:25 | 51.28277 | 6.76330 | 124 ft | 17 kts | 233° |
| 2026-05-05 06:26 | 51.28200 | 6.76172 | 126 ft | 20 kts | 233° |
| 2026-05-05 06:26 | 51.28112 | 6.75985 | 129 ft | 18 kts | 234° |
| 2026-05-05 06:26 | 51.28025 | 6.75803 | 129 ft | 19 kts | 232° |
| 2026-05-05 06:26 | 51.27944 | 6.75635 | 129 ft | 15 kts | 233° |
| 2026-05-05 06:27 | 51.28002 | 6.75517 | 128 ft | 18 kts | 339° |
| 2026-05-05 06:27 | 51.28116 | 6.75523 | 125 ft | 14 kts | 54° |
| 2026-05-05 06:27 | 51.28328 | 6.75969 | 129 ft | 85 kts | 53° |
| 2026-05-05 06:28 | 51.28815 | 6.76989 | 130 ft | 143 kts | 52° |
| 2026-05-05 06:28 | 51.29476 | 6.78385 | 474 ft | 161 kts | 52° |
| 2026-05-05 06:28 | 51.30140 | 6.79808 | 1189 ft | 159 kts | 53° |
| 2026-05-05 06:28 | 51.30801 | 6.81242 | 1741 ft | 165 kts | 54° |
| 2026-05-05 06:29 | 51.31507 | 6.82795 | 2165 ft | 179 kts | 53° |
| 2026-05-05 06:29 | 51.32296 | 6.84474 | 2571 ft | 200 kts | 53° |
| 2026-05-05 06:29 | 51.33175 | 6.86333 | 3048 ft | 216 kts | 54° |
| 2026-05-05 06:29 | 51.34064 | 6.88293 | 3848 ft | 219 kts | 55° |
| 2026-05-05 06:30 | 51.34934 | 6.90313 | 4675 ft | 222 kts | 61° |
| 2026-05-05 06:30 | 51.35357 | 6.92705 | 5353 ft | 227 kts | 91° |
| 2026-05-05 06:30 | 51.35181 | 6.95180 | 6254 ft | 226 kts | 100° |
| 2026-05-05 06:30 | 51.34936 | 6.97689 | 6991 ft | 230 kts | 100° |
| 2026-05-05 06:31 | 51.34675 | 7.00225 | 7795 ft | 232 kts | 101° |
| 2026-05-05 06:31 | 51.34400 | 7.02770 | 8653 ft | 233 kts | 101° |
| 2026-05-05 06:31 | 51.34108 | 7.05340 | 9473 ft | 238 kts | 102° |
| 2026-05-05 06:31 | 51.33798 | 7.08055 | 9911 ft | 260 kts | 102° |
| 2026-05-05 06:32 | 51.33468 | 7.11024 | 10233 ft | 283 kts | 101° |
| 2026-05-05 06:32 | 51.33120 | 7.14260 | 10524 ft | 307 kts | 101° |
| 2026-05-05 06:32 | 51.32756 | 7.17746 | 10837 ft | 327 kts | 100° |
| 2026-05-05 06:32 | 51.32430 | 7.21396 | 11403 ft | 336 kts | 99° |
| 2026-05-05 06:33 | 51.32148 | 7.25141 | 12087 ft | 342 kts | 98° |
| 2026-05-05 06:33 | 51.31884 | 7.28941 | 12777 ft | 346 kts | 98° |
| 2026-05-05 06:33 | 51.31621 | 7.32788 | 13445 ft | 350 kts | 98° |
| 2026-05-05 06:33 | 51.31167 | 7.36620 | 14049 ft | 353 kts | 108° |
| 2026-05-05 06:34 | 51.30225 | 7.40244 | 14622 ft | 354 kts | 121° |
| 2026-05-05 06:34 | 51.28823 | 7.43487 | 15203 ft | 356 kts | 132° |
| 2026-05-05 06:34 | 51.27246 | 7.46489 | 15765 ft | 359 kts | 131° |
| 2026-05-05 06:34 | 51.25642 | 7.49570 | 16328 ft | 363 kts | 131° |
| 2026-05-05 06:35 | 51.24001 | 7.52735 | 16894 ft | 367 kts | 131° |
| 2026-05-05 06:35 | 51.22388 | 7.55849 | 17446 ft | 371 kts | 131° |
| 2026-05-05 06:35 | 51.20739 | 7.59039 | 18017 ft | 375 kts | 131° |
| 2026-05-05 06:35 | 51.19070 | 7.62269 | 18518 ft | 379 kts | 131° |
| 2026-05-05 06:36 | 51.17380 | 7.65527 | 19008 ft | 383 kts | 133° |
| 2026-05-05 06:36 | 51.15492 | 7.68526 | 19490 ft | 384 kts | 143° |
| 2026-05-05 06:36 | 51.13375 | 7.71147 | 20016 ft | 387 kts | 145° |
| 2026-05-05 06:36 | 51.11235 | 7.73762 | 20543 ft | 390 kts | 145° |
| 2026-05-05 06:37 | 51.09072 | 7.76399 | 21073 ft | 393 kts | 145° |
| 2026-05-05 06:37 | 51.06894 | 7.79054 | 21569 ft | 396 kts | 145° |
| 2026-05-05 06:37 | 51.04705 | 7.81723 | 22152 ft | 398 kts | 145° |
| 2026-05-05 06:37 | 51.02505 | 7.84410 | 22665 ft | 400 kts | 145° |
| 2026-05-05 06:38 | 51.00296 | 7.87110 | 22882 ft | 401 kts | 145° |
| 2026-05-05 06:38 | 50.98115 | 7.89782 | 22904 ft | 390 kts | 145° |
| 2026-05-05 06:38 | 50.95997 | 7.92375 | 22909 ft | 381 kts | 145° |
| 2026-05-05 06:38 | 50.93907 | 7.94924 | 22913 ft | 378 kts | 145° |
| 2026-05-05 06:39 | 50.91824 | 7.97452 | 22914 ft | 377 kts | 145° |
| 2026-05-05 06:39 | 50.89739 | 7.99974 | 22914 ft | 377 kts | 145° |
| 2026-05-05 06:39 | 50.87658 | 8.02489 | 22910 ft | 376 kts | 145° |
| 2026-05-05 06:39 | 50.85582 | 8.05000 | 22918 ft | 375 kts | 145° |
| 2026-05-05 06:40 | 50.83649 | 8.07787 | 22918 ft | 378 kts | 135° |
| 2026-05-05 06:40 | 50.82062 | 8.11119 | 22920 ft | 381 kts | 126° |
| 2026-05-05 06:40 | 50.80604 | 8.14612 | 22918 ft | 381 kts | 126° |
| 2026-05-05 06:40 | 50.79138 | 8.18101 | 22919 ft | 381 kts | 126° |
| 2026-05-05 06:41 | 50.77667 | 8.21581 | 22918 ft | 381 kts | 126° |
| 2026-05-05 06:41 | 50.76213 | 8.25004 | 22917 ft | 381 kts | 127° |
| 2026-05-05 06:41 | 50.74736 | 8.28474 | 22918 ft | 381 kts | 127° |
| 2026-05-05 06:41 | 50.73261 | 8.31946 | 22915 ft | 381 kts | 126° |
| 2026-05-05 06:42 | 50.71789 | 8.35420 | 22917 ft | 381 kts | 126° |
| 2026-05-05 06:42 | 50.70440 | 8.39014 | 22917 ft | 383 kts | 116° |
| 2026-05-05 06:42 | 50.69461 | 8.42935 | 22901 ft | 384 kts | 113° |
| 2026-05-05 06:42 | 50.68503 | 8.46875 | 22887 ft | 385 kts | 113° |
| 2026-05-05 06:43 | 50.67546 | 8.50817 | 22882 ft | 385 kts | 113° |
| 2026-05-05 06:43 | 50.66587 | 8.54756 | 22884 ft | 385 kts | 113° |
| 2026-05-05 06:43 | 50.65627 | 8.58697 | 22887 ft | 385 kts | 113° |
| 2026-05-05 06:43 | 50.64663 | 8.62641 | 22878 ft | 386 kts | 114° |
| 2026-05-05 06:44 | 50.63695 | 8.66578 | 22880 ft | 386 kts | 114° |
| 2026-05-05 06:44 | 50.62721 | 8.70510 | 22882 ft | 386 kts | 114° |
| 2026-05-05 06:44 | 50.61744 | 8.74447 | 22885 ft | 386 kts | 114° |
| 2026-05-05 06:44 | 50.60767 | 8.78384 | 22886 ft | 386 kts | 114° |
| 2026-05-05 06:45 | 50.59791 | 8.82325 | 22891 ft | 386 kts | 114° |
| 2026-05-05 06:45 | 50.58816 | 8.86261 | 22891 ft | 386 kts | 114° |
| 2026-05-05 06:45 | 50.57841 | 8.90195 | 22892 ft | 386 kts | 114° |
| 2026-05-05 06:45 | 50.56866 | 8.94123 | 22893 ft | 386 kts | 114° |
| 2026-05-05 06:46 | 50.55889 | 8.98054 | 22895 ft | 386 kts | 114° |
| 2026-05-05 06:46 | 50.54907 | 9.01987 | 22896 ft | 386 kts | 114° |
| 2026-05-05 06:46 | 50.53924 | 9.05914 | 22895 ft | 386 kts | 114° |
| 2026-05-05 06:46 | 50.52940 | 9.09835 | 22897 ft | 386 kts | 114° |
| 2026-05-05 06:47 | 50.51954 | 9.13757 | 22899 ft | 386 kts | 114° |
| 2026-05-05 06:47 | 50.50968 | 9.17672 | 22892 ft | 385 kts | 114° |
| 2026-05-05 06:47 | 50.49981 | 9.21589 | 22901 ft | 385 kts | 114° |
| 2026-05-05 06:47 | 50.49009 | 9.25435 | 22904 ft | 384 kts | 114° |
| 2026-05-05 06:48 | 50.48025 | 9.29328 | 22900 ft | 383 kts | 114° |
| 2026-05-05 06:48 | 50.47040 | 9.33219 | 22887 ft | 383 kts | 115° |
| 2026-05-05 06:48 | 50.46054 | 9.37107 | 22884 ft | 384 kts | 115° |
| 2026-05-05 06:48 | 50.45067 | 9.40994 | 22879 ft | 384 kts | 115° |
| 2026-05-05 06:49 | 50.44075 | 9.44891 | 22878 ft | 384 kts | 115° |
| 2026-05-05 06:49 | 50.43083 | 9.48785 | 22881 ft | 385 kts | 115° |
| 2026-05-05 06:49 | 50.42087 | 9.52680 | 22884 ft | 385 kts | 115° |
| 2026-05-05 06:49 | 50.41090 | 9.56576 | 22886 ft | 385 kts | 115° |
| 2026-05-05 06:50 | 50.40092 | 9.60469 | 22890 ft | 385 kts | 115° |
| 2026-05-05 06:50 | 50.39091 | 9.64365 | 22890 ft | 385 kts | 115° |
| 2026-05-05 06:50 | 50.38088 | 9.68257 | 22884 ft | 385 kts | 115° |
| 2026-05-05 06:50 | 50.37084 | 9.72142 | 22889 ft | 385 kts | 115° |
| 2026-05-05 06:51 | 50.36078 | 9.76033 | 22879 ft | 385 kts | 115° |
| 2026-05-05 06:51 | 50.35071 | 9.79922 | 22877 ft | 386 kts | 115° |
| 2026-05-05 06:51 | 50.34060 | 9.83822 | 22874 ft | 386 kts | 115° |
| 2026-05-05 06:51 | 50.33048 | 9.87715 | 22871 ft | 387 kts | 115° |
| 2026-05-05 06:52 | 50.32034 | 9.91620 | 22873 ft | 387 kts | 115° |
| 2026-05-05 06:52 | 50.31020 | 9.95524 | 22876 ft | 387 kts | 115° |
| 2026-05-05 06:52 | 50.30007 | 9.99418 | 22875 ft | 387 kts | 115° |
| 2026-05-05 06:52 | 50.29002 | 10.03268 | 22875 ft | 387 kts | 115° |
| 2026-05-05 06:53 | 50.27983 | 10.07169 | 22882 ft | 388 kts | 116° |
| 2026-05-05 06:53 | 50.26961 | 10.11071 | 22881 ft | 388 kts | 116° |
| 2026-05-05 06:53 | 50.25939 | 10.14962 | 22885 ft | 388 kts | 116° |
| 2026-05-05 06:53 | 50.24912 | 10.18855 | 22868 ft | 387 kts | 116° |
| 2026-05-05 06:54 | 50.23883 | 10.22750 | 22868 ft | 388 kts | 116° |
| 2026-05-05 06:54 | 50.22852 | 10.26648 | 22865 ft | 388 kts | 116° |
| 2026-05-05 06:54 | 50.21821 | 10.30546 | 22869 ft | 389 kts | 116° |
| 2026-05-05 06:54 | 50.20787 | 10.34450 | 22866 ft | 389 kts | 116° |
| 2026-05-05 06:55 | 50.19754 | 10.38348 | 22863 ft | 389 kts | 116° |
| 2026-05-05 06:55 | 50.18718 | 10.42254 | 22865 ft | 389 kts | 116° |
| 2026-05-05 06:55 | 50.17681 | 10.46154 | 22866 ft | 389 kts | 116° |
| 2026-05-05 06:55 | 50.16642 | 10.50056 | 22877 ft | 389 kts | 116° |
| 2026-05-05 06:56 | 50.15607 | 10.53938 | 22892 ft | 388 kts | 116° |
| 2026-05-05 06:56 | 50.14571 | 10.57816 | 22896 ft | 387 kts | 116° |
| 2026-05-05 06:56 | 50.13535 | 10.61686 | 22882 ft | 386 kts | 116° |
| 2026-05-05 06:56 | 50.12499 | 10.65542 | 22885 ft | 385 kts | 116° |
| 2026-05-05 06:57 | 50.11462 | 10.69389 | 22882 ft | 385 kts | 116° |
| 2026-05-05 06:57 | 50.10421 | 10.73236 | 22880 ft | 385 kts | 116° |
| 2026-05-05 06:57 | 50.09382 | 10.77076 | 22880 ft | 385 kts | 116° |
| 2026-05-05 06:57 | 50.08344 | 10.80911 | 22879 ft | 385 kts | 116° |
| 2026-05-05 06:58 | 50.07305 | 10.84744 | 22883 ft | 385 kts | 116° |
| 2026-05-05 06:58 | 50.06265 | 10.88580 | 22882 ft | 384 kts | 116° |
| 2026-05-05 06:58 | 50.05242 | 10.92363 | 22882 ft | 384 kts | 116° |
| 2026-05-05 06:58 | 50.04200 | 10.96187 | 22879 ft | 384 kts | 117° |
| 2026-05-05 06:59 | 50.02814 | 10.99676 | 22871 ft | 377 kts | 135° |
| 2026-05-05 06:59 | 50.00921 | 11.02432 | 22866 ft | 373 kts | 143° |
| 2026-05-05 06:59 | 49.98943 | 11.05041 | 22864 ft | 373 kts | 143° |
| 2026-05-05 06:59 | 49.96961 | 11.07639 | 22865 ft | 373 kts | 143° |
| 2026-05-05 07:00 | 49.94977 | 11.10238 | 22861 ft | 373 kts | 143° |
| 2026-05-05 07:00 | 49.92989 | 11.12836 | 22862 ft | 373 kts | 143° |
| 2026-05-05 07:00 | 49.91005 | 11.15430 | 22863 ft | 373 kts | 143° |
| 2026-05-05 07:00 | 49.89021 | 11.18025 | 22865 ft | 373 kts | 143° |
| 2026-05-05 07:01 | 49.87036 | 11.20617 | 22854 ft | 373 kts | 143° |
| 2026-05-05 07:01 | 49.85051 | 11.23210 | 22861 ft | 373 kts | 143° |
| 2026-05-05 07:01 | 49.83070 | 11.25796 | 22866 ft | 373 kts | 143° |
| 2026-05-05 07:01 | 49.81086 | 11.28380 | 22868 ft | 372 kts | 143° |
| 2026-05-05 07:02 | 49.79773 | 11.30089 | 22868 ft | 372 kts | 143° |
| 2026-05-05 07:02 | 49.77792 | 11.32664 | 22869 ft | 372 kts | 143° |
| 2026-05-05 07:02 | 49.75140 | 11.36107 | 22856 ft | 372 kts | 143° |
| 2026-05-05 07:02 | 49.73827 | 11.37810 | 22858 ft | 372 kts | 143° |
| 2026-05-05 07:03 | 49.71843 | 11.40382 | 22863 ft | 372 kts | 143° |
| 2026-05-05 07:03 | 49.69860 | 11.42951 | 22862 ft | 372 kts | 143° |
| 2026-05-05 07:03 | 49.67876 | 11.45515 | 22862 ft | 372 kts | 143° |
| 2026-05-05 07:03 | 49.65889 | 11.48079 | 22863 ft | 372 kts | 143° |
| 2026-05-05 07:04 | 49.63905 | 11.50641 | 22862 ft | 372 kts | 143° |
| 2026-05-05 07:04 | 49.61921 | 11.53201 | 22862 ft | 372 kts | 143° |
| 2026-05-05 07:04 | 49.59932 | 11.55756 | 22865 ft | 372 kts | 143° |
| 2026-05-05 07:04 | 49.57947 | 11.58302 | 22872 ft | 371 kts | 143° |
| 2026-05-05 07:05 | 49.55969 | 11.60844 | 22876 ft | 371 kts | 143° |
| 2026-05-05 07:05 | 49.53986 | 11.63391 | 22878 ft | 370 kts | 143° |
| 2026-05-05 07:05 | 49.52008 | 11.65923 | 22879 ft | 370 kts | 143° |
| 2026-05-05 07:05 | 49.50054 | 11.68417 | 22878 ft | 370 kts | 143° |
| 2026-05-05 07:06 | 49.48052 | 11.70974 | 22859 ft | 370 kts | 143° |
| 2026-05-05 07:06 | 49.46072 | 11.73503 | 22859 ft | 370 kts | 143° |
| 2026-05-05 07:06 | 49.44121 | 11.75996 | 22859 ft | 370 kts | 143° |
| 2026-05-05 07:06 | 49.42141 | 11.78521 | 22860 ft | 370 kts | 143° |
| 2026-05-05 07:07 | 49.40160 | 11.81047 | 22861 ft | 370 kts | 143° |
| 2026-05-05 07:07 | 49.38178 | 11.83566 | 22862 ft | 370 kts | 143° |
| 2026-05-05 07:07 | 49.36193 | 11.86080 | 22863 ft | 370 kts | 143° |
| 2026-05-05 07:07 | 49.34204 | 11.88593 | 22864 ft | 370 kts | 143° |
| 2026-05-05 07:08 | 49.32220 | 11.91104 | 22861 ft | 370 kts | 143° |
| 2026-05-05 07:08 | 49.30236 | 11.93621 | 22862 ft | 370 kts | 143° |
| 2026-05-05 07:08 | 49.28255 | 11.96136 | 22863 ft | 370 kts | 143° |
| 2026-05-05 07:08 | 49.26273 | 11.98649 | 22864 ft | 370 kts | 143° |
| 2026-05-05 07:09 | 49.24288 | 12.01155 | 22867 ft | 370 kts | 143° |
| 2026-05-05 07:09 | 49.22301 | 12.03655 | 22867 ft | 370 kts | 143° |
| 2026-05-05 07:09 | 49.20315 | 12.06152 | 22862 ft | 370 kts | 143° |
| 2026-05-05 07:09 | 49.18326 | 12.08655 | 22859 ft | 371 kts | 143° |
| 2026-05-05 07:10 | 49.16336 | 12.11163 | 22854 ft | 371 kts | 143° |
| 2026-05-05 07:10 | 49.14340 | 12.13676 | 22856 ft | 372 kts | 143° |
| 2026-05-05 07:10 | 49.12342 | 12.16178 | 22858 ft | 372 kts | 143° |
| 2026-05-05 07:10 | 49.10339 | 12.18680 | 22859 ft | 372 kts | 143° |
| 2026-05-05 07:11 | 49.08337 | 12.21176 | 22849 ft | 372 kts | 143° |
| 2026-05-05 07:11 | 49.06332 | 12.23673 | 22853 ft | 372 kts | 143° |
| 2026-05-05 07:11 | 49.04334 | 12.26167 | 22855 ft | 372 kts | 143° |
| 2026-05-05 07:11 | 49.02334 | 12.28667 | 22847 ft | 372 kts | 143° |
| 2026-05-05 07:12 | 49.00328 | 12.31174 | 22402 ft | 374 kts | 143° |
| 2026-05-05 07:12 | 48.98314 | 12.33686 | 21953 ft | 375 kts | 143° |
| 2026-05-05 07:12 | 48.96294 | 12.36199 | 21511 ft | 376 kts | 143° |
| 2026-05-05 07:12 | 48.94262 | 12.38722 | 21064 ft | 377 kts | 143° |
| 2026-05-05 07:13 | 48.92229 | 12.41241 | 20633 ft | 378 kts | 143° |
| 2026-05-05 07:13 | 48.90190 | 12.43763 | 20214 ft | 378 kts | 143° |
| 2026-05-05 07:13 | 48.88152 | 12.46282 | 19792 ft | 378 kts | 143° |
| 2026-05-05 07:13 | 48.86110 | 12.48808 | 19382 ft | 378 kts | 143° |
| 2026-05-05 07:14 | 48.84078 | 12.51318 | 18976 ft | 377 kts | 142° |
| 2026-05-05 07:14 | 48.82070 | 12.53796 | 18581 ft | 376 kts | 142° |
| 2026-05-05 07:14 | 48.80042 | 12.56293 | 18186 ft | 375 kts | 142° |
| 2026-05-05 07:14 | 48.78020 | 12.58782 | 17737 ft | 374 kts | 142° |
| 2026-05-05 07:15 | 48.76006 | 12.61258 | 17287 ft | 372 kts | 142° |
| 2026-05-05 07:15 | 48.73998 | 12.63724 | 16846 ft | 370 kts | 142° |
| 2026-05-05 07:15 | 48.71969 | 12.66100 | 16405 ft | 367 kts | 148° |
| 2026-05-05 07:15 | 48.69710 | 12.67830 | 15974 ft | 363 kts | 161° |
| 2026-05-05 07:16 | 48.67283 | 12.68764 | 15552 ft | 359 kts | 171° |
| 2026-05-05 07:16 | 48.64829 | 12.69398 | 15129 ft | 357 kts | 171° |
| 2026-05-05 07:16 | 48.62388 | 12.70028 | 14716 ft | 355 kts | 171° |
| 2026-05-05 07:16 | 48.59965 | 12.70650 | 14313 ft | 352 kts | 171° |
| 2026-05-05 07:17 | 48.57553 | 12.71225 | 13962 ft | 349 kts | 172° |
| 2026-05-05 07:17 | 48.55166 | 12.71744 | 13608 ft | 345 kts | 173° |
| 2026-05-05 07:17 | 48.52800 | 12.72235 | 13213 ft | 342 kts | 173° |
| 2026-05-05 07:17 | 48.50451 | 12.72714 | 12816 ft | 339 kts | 173° |
| 2026-05-05 07:18 | 48.48127 | 12.73189 | 12428 ft | 336 kts | 173° |
| 2026-05-05 07:18 | 48.45818 | 12.73667 | 12042 ft | 334 kts | 173° |
| 2026-05-05 07:18 | 48.43531 | 12.74150 | 11664 ft | 331 kts | 172° |
| 2026-05-05 07:18 | 48.41254 | 12.74637 | 11287 ft | 329 kts | 172° |
| 2026-05-05 07:19 | 48.39008 | 12.75218 | 10920 ft | 327 kts | 167° |
| 2026-05-05 07:19 | 48.36805 | 12.76034 | 10559 ft | 325 kts | 167° |
| 2026-05-05 07:19 | 48.34615 | 12.76842 | 10192 ft | 323 kts | 167° |
| 2026-05-05 07:19 | 48.32438 | 12.77643 | 9834 ft | 321 kts | 167° |
| 2026-05-05 07:20 | 48.30283 | 12.78429 | 9520 ft | 317 kts | 167° |
| 2026-05-05 07:20 | 48.28152 | 12.79198 | 9202 ft | 313 kts | 167° |
| 2026-05-05 07:20 | 48.26045 | 12.79958 | 8894 ft | 310 kts | 167° |
| 2026-05-05 07:20 | 48.23989 | 12.80702 | 8607 ft | 306 kts | 167° |
| 2026-05-05 07:21 | 48.21931 | 12.81446 | 8326 ft | 303 kts | 167° |
| 2026-05-05 07:21 | 48.19888 | 12.82185 | 8045 ft | 300 kts | 167° |
| 2026-05-05 07:21 | 48.17872 | 12.82912 | 7771 ft | 297 kts | 167° |
| 2026-05-05 07:21 | 48.15870 | 12.83634 | 7499 ft | 295 kts | 167° |
| 2026-05-05 07:22 | 48.13885 | 12.84354 | 7219 ft | 293 kts | 167° |
| 2026-05-05 07:22 | 48.11918 | 12.85069 | 6880 ft | 289 kts | 167° |
| 2026-05-05 07:22 | 48.09994 | 12.85769 | 6540 ft | 280 kts | 167° |
| 2026-05-05 07:22 | 48.08123 | 12.86444 | 6228 ft | 273 kts | 167° |
| 2026-05-05 07:23 | 48.06276 | 12.87109 | 5897 ft | 275 kts | 167° |
| 2026-05-05 07:23 | 48.04416 | 12.87777 | 5558 ft | 273 kts | 167° |
| 2026-05-05 07:23 | 48.02595 | 12.88433 | 5275 ft | 265 kts | 168° |
| 2026-05-05 07:23 | 48.00825 | 12.89071 | 5003 ft | 259 kts | 168° |
| 2026-05-05 07:24 | 47.99063 | 12.89325 | 4736 ft | 251 kts | 180° |
| 2026-05-05 07:24 | 47.97352 | 12.89388 | 4459 ft | 239 kts | 178° |
| 2026-05-05 07:24 | 47.95784 | 12.89953 | 4186 ft | 228 kts | 158° |
| 2026-05-05 07:24 | 47.94355 | 12.90867 | 4005 ft | 216 kts | 159° |
| 2026-05-05 07:25 | 47.93031 | 12.91710 | 3989 ft | 199 kts | 158° |
| 2026-05-05 07:25 | 47.91820 | 12.92480 | 3823 ft | 185 kts | 158° |
| 2026-05-05 07:25 | 47.90675 | 12.93206 | 3617 ft | 174 kts | 158° |
| 2026-05-05 07:25 | 47.89588 | 12.93897 | 3392 ft | 166 kts | 158° |
| 2026-05-05 07:26 | 47.88550 | 12.94559 | 3165 ft | 158 kts | 159° |
| 2026-05-05 07:26 | 47.87560 | 12.95174 | 2965 ft | 151 kts | 159° |
| 2026-05-05 07:26 | 47.86606 | 12.95767 | 2786 ft | 148 kts | 159° |
| 2026-05-05 07:26 | 47.85664 | 12.96371 | 2587 ft | 147 kts | 157° |
| 2026-05-05 07:27 | 47.84727 | 12.96967 | 2416 ft | 146 kts | 158° |
| 2026-05-05 07:27 | 47.83795 | 12.97560 | 2226 ft | 145 kts | 157° |
| 2026-05-05 07:27 | 47.82870 | 12.98150 | 2019 ft | 144 kts | 157° |
| 2026-05-05 07:27 | 47.81954 | 12.98734 | 1821 ft | 143 kts | 156° |
| 2026-05-05 07:28 | 47.81047 | 12.99310 | 1631 ft | 141 kts | 157° |
| 2026-05-05 07:28 | 47.80147 | 12.99881 | 1439 ft | 140 kts | 157° |
| 2026-05-05 07:28 | 47.79314 | 13.00409 | 1417 ft | 109 kts | 156° |
| 2026-05-05 07:28 | 47.78891 | 13.00675 | 1414 ft | 33 kts | 157° |
| 2026-05-05 07:29 | 47.78685 | 13.00807 | 1417 ft | 28 kts | 158° |
| 2026-05-05 07:29 | 47.78561 | 13.00821 | 1420 ft | 16 kts | 224° |
| 2026-05-05 07:29 | 47.78527 | 13.00644 | 1414 ft | 20 kts | 297° |
| 2026-05-05 07:29 | 47.78657 | 13.00558 | 1416 ft | 13 kts | 336° |
| 2026-05-05 07:30 | 47.78750 | 13.00497 | 1417 ft | 10 kts | 336° |
| 2026-05-05 07:30 | 47.78901 | 13.00401 | 1421 ft | 11 kts | 337° |
| 2026-05-05 07:30 | 47.78952 | 13.00339 | 1414 ft | 10 kts | 276° |
| 2026-05-05 07:31 | 47.78954 | 13.00233 | 1414 ft | 6 kts | 272° |
| 2026-05-05 07:31 | 47.78961 | 13.00167 | 1414 ft | 3 kts | 288° |
| 2026-05-05 07:31 | 47.78987 | 13.00133 | 1414 ft | 7 kts | 332° |
| 2026-05-05 07:31 | 47.79043 | 13.00101 | 1414 ft | 7 kts | 335° |
| 2026-05-05 07:32 | 47.79090 | 13.00070 | 1414 ft | 8 kts | 337° |
| 2026-05-05 07:32 | 47.79131 | 13.00043 | 1414 ft | 6 kts | 338° |
| 2026-05-05 07:32 | 47.79177 | 13.00016 | 1415 ft | 5 kts | 335° |
| 2026-05-05 07:32 | 47.79187 | 12.99985 | 1416 ft | 4 kts | 275° |
| 2026-05-05 07:33 | 47.79191 | 12.99942 | 1418 ft | 4 kts | 280° |
| 2026-05-05 07:33 | 47.79196 | 12.99905 | 1417 ft | 3 kts | 282° |
| 2026-05-05 07:33 | 47.79198 | 12.99892 | 1418 ft | 0 kts | 282° |